Etusivu
METAR-TAF:

METAR-TAF

Lentoasemat :

Fort McMurrayn lentoasema

Fort McMurray, Alberta, Kanada

Leveyspiiri: 56-39N, Pituuspiiri: 111-13W, korkeus merenpinnasta: 369 m

Tämänhetkinen sää

Tämä raportti tehtiin 35 minuuttia sitten, kello 16.00 UTC
Tuuli 7 kn idästä/kaakosta
Lämpötila -18°C
Kosteus 84%
Ilmanpaine 1031 hPa
Näkyvyys: 14.5 km
Hajanaisia pilviä 22000 ft:n korkeudessa

METAR: CYMM 251600Z AUTO 11007KT 9SM SCT220 M18/M20 A3046 RMK SLP357

Aika: 09:35 (16:35 UTC)

Sääennuste

Tämä raportti tehtiin 3 tuntia ja 57 minuuttia sitten, kello 12.38 UTC
Ennuste voimassa 25. päivästä klo 13 UTC - 26. päivään klo 01 UTC
Tuuli 5 kn idästä/kaakosta
Näkyvyys: 10 km
selkeää

TAF: CYMM 251238Z 2513/2601 12005KT P6SM SKC RMK FCST BASED ON AUTO OBS. NXT FCST BY 251900Z

Säähavainnot ja -ennusteet yli 4000 lentoasemalta (METAR- ja TAF-raportit).

Käytössä olevat sääasemat on merkitty karttaan keltaisilla ja punaisilla pisteillä.

Aseta hiiri pisteen päälle nähdäksesi sääaseman nimen.

Klikkaa sitten nähdäksesi säähavainnot ja -ennusteet.

Kartan vaihtaminen: klikkaa mustalla rastilla varustettuja vihreitä pisteitä, niin voit zoomata sisään; viivalla varustettua vihreää pistettä, niin voit zoomata ulos tai vihreitä nuolia, niin pääset viereisille kartoille.


METAR-TAF: